Terminal Aerodrome Forecast
Issued by NWS

Home | Current Version | Previous Version | Text Only | Print | Product List | Glossary On
Versions: 1 2 3 4 5 6 7 8 9 10 11 12 13 14 15 16 17 18 19 20 21
000
FTUS43 KGRR 031500 AAD
TAFLAN
TAF AMD
KLAN 031559Z 0316/0412 14015KT 1SM -SNPL OVC015
     FM031700 15016G26KT 1SM -FZRAPL BR OVC012
     FM032200 21016G26KT 4SM -RA BR OVC004
     FM040400 27012G22KT P6SM OVC015=

USA.gov is the U.S. government's official web portal to all federal, state and local government web resources and services.